createdAt,value
2023-04-12T00:01:31.867Z,96422.94
2023-04-12T00:03:58.439Z,96426.44
2023-04-12T00:06:25.037Z,96418.13
2023-04-12T00:08:51.301Z,96420.81
2023-04-12T00:11:17.586Z,96412.22
2023-04-12T00:13:43.855Z,96409.00
2023-04-12T00:16:10.190Z,96410.06
2023-04-12T00:18:36.535Z,96409.00
2023-04-12T00:21:02.797Z,96404.72
2023-04-12T00:23:29.072Z,96400.97
2023-04-12T00:25:55.347Z,96394.25
2023-04-12T00:28:21.605Z,96383.78
2023-04-12T00:30:47.901Z,96379.50
2023-04-12T00:33:14.223Z,96372.81
2023-04-12T00:35:40.563Z,96363.16
2023-04-12T00:38:06.836Z,96361.28
2023-04-12T00:40:33.183Z,96354.56
2023-04-12T00:42:59.479Z,96350.53
2023-04-12T00:45:25.729Z,96352.97
2023-04-12T00:47:52.062Z,96350.00
2023-04-12T00:50:18.490Z,96345.72
2023-04-12T00:52:44.762Z,96337.66
2023-04-12T00:55:11.053Z,96336.88
2023-04-12T00:57:37.364Z,96335.53
2023-04-12T01:00:03.659Z,96332.56
2023-04-12T01:02:30.084Z,96328.00
2023-04-12T01:04:56.496Z,96330.16
2023-04-12T01:07:22.749Z,96324.53
2023-04-12T01:09:49.012Z,96325.88
2023-04-12T01:12:15.284Z,96327.50
2023-04-12T01:14:41.538Z,96326.69
2023-04-12T01:17:07.809Z,96321.06
2023-04-12T01:19:34.098Z,96307.66
2023-04-12T01:22:00.420Z,96298.00
2023-04-12T01:24:26.699Z,96304.72
2023-04-12T01:26:52.979Z,96291.59
2023-04-12T01:29:19.240Z,96286.22
2023-04-12T01:31:45.595Z,96282.47
2023-04-12T01:34:11.928Z,96281.66
2023-04-12T01:36:38.225Z,96282.47
2023-04-12T01:39:04.551Z,96283.28
2023-04-12T01:41:30.818Z,96276.31
2023-04-12T01:43:57.244Z,96279.78
2023-04-12T01:46:23.598Z,96269.88
2023-04-12T01:48:49.851Z,96261.56
2023-04-12T01:51:16.124Z,96254.31
2023-04-12T01:53:42.377Z,96236.63
2023-04-12T01:56:08.633Z,96241.19
2023-04-12T01:58:34.905Z,96235.56
2023-04-12T02:01:01.215Z,96220.25
2023-04-12T02:03:27.565Z,96215.97
2023-04-12T02:05:53.860Z,96206.59
2023-04-12T02:08:20.161Z,96193.72
2023-04-12T02:10:46.408Z,96202.56
2023-04-12T02:13:12.683Z,96200.16
2023-04-12T02:15:38.938Z,96214.34
2023-04-12T02:18:05.254Z,96210.31
2023-04-12T02:20:31.621Z,96203.38
2023-04-12T02:22:57.896Z,96203.91
2023-04-12T02:25:24.183Z,96195.06
2023-04-12T02:27:50.483Z,96182.72
2023-04-12T02:30:16.745Z,96180.31
2023-04-12T02:32:43.016Z,96190.78
2023-04-12T02:35:09.317Z,96189.44
2023-04-12T02:37:35.585Z,96189.72
2023-04-12T02:40:01.863Z,96190.78
2023-04-12T02:42:28.139Z,96181.66
2023-04-12T02:44:54.406Z,96181.66
2023-04-12T02:47:20.673Z,96168.81
2023-04-12T02:49:46.946Z,96176.84
2023-04-12T02:52:13.672Z,96173.09
2023-04-12T02:54:39.928Z,96154.88
2023-04-12T02:57:06.210Z,96147.06
2023-04-12T02:59:32.475Z,96141.44
2023-04-12T03:01:58.792Z,96136.06
2023-04-12T03:04:25.233Z,96131.78
2023-04-12T03:06:51.566Z,96125.34
2023-04-12T03:09:17.824Z,96118.13
2023-04-12T03:11:44.093Z,96115.44
2023-04-12T03:14:10.343Z,96109.28
2023-04-12T03:16:36.599Z,96113.03
2023-04-12T03:19:02.865Z,96121.34
2023-04-12T03:21:29.120Z,96117.88
2023-04-12T03:23:55.495Z,96117.88
2023-04-12T03:26:21.818Z,96113.84
2023-04-12T03:28:48.079Z,96109.81
2023-04-12T03:31:14.351Z,96106.34
2023-04-12T03:33:40.622Z,96105.53
2023-04-12T03:36:06.880Z,96103.66
2023-04-12T03:38:33.155Z,96096.97
2023-04-12T03:40:59.416Z,96101.25
2023-04-12T03:43:25.663Z,96092.94
2023-04-12T03:45:51.931Z,96094.28
2023-04-12T03:48:18.211Z,96098.56
2023-04-12T03:50:44.585Z,96092.94
2023-04-12T03:53:10.964Z,96097.75
2023-04-12T03:55:37.249Z,96086.22
2023-04-12T03:58:03.504Z,96093.19
2023-04-12T04:00:29.759Z,96096.66
2023-04-12T04:02:56.050Z,96095.06
2023-04-12T04:05:22.336Z,96106.59
2023-04-12T04:07:48.594Z,96113.56
2023-04-12T04:10:14.866Z,96107.38
2023-04-12T04:12:41.133Z,96106.28
2023-04-12T04:15:07.404Z,96095.56
2023-04-12T04:17:33.698Z,96093.69
2023-04-12T04:20:00.008Z,96081.91
2023-04-12T04:22:26.285Z,96069.06
2023-04-12T04:24:52.539Z,96075.53
2023-04-12T04:27:18.783Z,96069.63
2023-04-12T04:29:45.054Z,96059.97
2023-04-12T04:32:11.364Z,96052.75
2023-04-12T04:34:37.653Z,96058.91
2023-04-12T04:37:03.929Z,96059.19
2023-04-12T04:39:30.189Z,96055.69
2023-04-12T04:41:56.452Z,96039.63
2023-04-12T04:44:22.729Z,96036.94
2023-04-12T04:46:49.006Z,96039.63
2023-04-12T04:49:15.276Z,96047.94
2023-04-12T04:51:41.539Z,96042.84
2023-04-12T04:54:07.800Z,96036.69
2023-04-12T04:56:34.065Z,96045.53
2023-04-12T04:59:00.472Z,96050.91
2023-04-12T05:01:26.890Z,96056.25
2023-04-12T05:03:53.281Z,96055.19
2023-04-12T05:06:19.616Z,96047.94
2023-04-12T05:08:45.877Z,96054.91
2023-04-12T05:11:12.158Z,96064.53
2023-04-12T05:13:38.414Z,96058.63
2023-04-12T05:16:04.667Z,96064.25
2023-04-12T05:18:30.930Z,96057.84
2023-04-12T05:20:57.218Z,96068.03
2023-04-12T05:23:23.491Z,96073.66
2023-04-12T05:25:49.749Z,96065.91
2023-04-12T05:28:16.026Z,96061.06
2023-04-12T05:30:42.291Z,96075.00
2023-04-12T05:33:08.590Z,96077.94
2023-04-12T05:35:34.910Z,96069.91
2023-04-12T05:38:01.200Z,96064.53
2023-04-12T05:40:27.485Z,96062.94
2023-04-12T05:42:53.730Z,96055.69
2023-04-12T05:45:19.983Z,96058.38
2023-04-12T05:47:46.332Z,96044.72
2023-04-12T05:50:12.640Z,96046.59
2023-04-12T05:52:38.906Z,96051.94
2023-04-12T05:55:05.146Z,96055.69
2023-04-12T05:57:31.425Z,96065.06
2023-04-12T05:59:57.680Z,96052.47
2023-04-12T06:02:24.080Z,96050.31
2023-04-12T06:04:51.625Z,96046.84
2023-04-12T06:07:18.311Z,96039.31
2023-04-12T06:09:44.576Z,96040.66
2023-04-12T06:12:10.852Z,96046.25
2023-04-12T06:14:37.113Z,96033.94
2023-04-12T06:17:03.421Z,96038.22
2023-04-12T06:19:29.694Z,96035.00
2023-04-12T06:21:55.948Z,96037.41
2023-04-12T06:24:22.195Z,96040.63
2023-04-12T06:26:48.452Z,96027.72
2023-04-12T06:29:14.707Z,96023.69
2023-04-12T06:31:41.096Z,96021.53
2023-04-12T06:34:07.703Z,96008.94
2023-04-12T06:36:33.952Z,96006.78
2023-04-12T06:39:00.205Z,96008.38
2023-04-12T06:41:26.467Z,96008.09
2023-04-12T06:43:52.723Z,96027.91
2023-04-12T06:46:18.987Z,96027.09
2023-04-12T06:48:45.255Z,96026.53
2023-04-12T06:51:11.540Z,96033.47
2023-04-12T06:53:37.809Z,96030.25
2023-04-12T06:56:04.097Z,96016.84
2023-04-12T06:58:30.362Z,96007.19
2023-04-12T07:00:56.668Z,96005.03
2023-04-12T07:03:23.040Z,96004.69
2023-04-12T07:05:49.366Z,96009.50
2023-04-12T07:08:15.644Z,95995.81
2023-04-12T07:10:41.925Z,96003.31
2023-04-12T07:13:08.197Z,96001.94
2023-04-12T07:15:34.491Z,95981.50
2023-04-12T07:18:00.782Z,95988.72
2023-04-12T07:20:27.099Z,95989.00
2023-04-12T07:22:53.363Z,95974.22
2023-04-12T07:25:19.663Z,95965.09
2023-04-12T07:27:45.907Z,95949.78
2023-04-12T07:30:12.163Z,95952.97
2023-04-12T07:32:38.538Z,95972.56
2023-04-12T07:35:04.939Z,95971.19
2023-04-12T07:37:31.187Z,95972.00
2023-04-12T07:39:57.511Z,95953.72
2023-04-12T07:42:23.813Z,95947.84
2023-04-12T07:44:50.067Z,95958.00
2023-04-12T07:47:16.339Z,95951.28
2023-04-12T07:49:42.640Z,95959.28
2023-04-12T07:52:08.921Z,95952.78
2023-04-12T07:54:35.191Z,95951.94
2023-04-12T07:57:01.464Z,95941.25
2023-04-12T07:59:27.725Z,95956.22
2023-04-12T08:01:53.996Z,95954.03
2023-04-12T08:04:20.383Z,95957.25
2023-04-12T08:06:46.779Z,95954.44
2023-04-12T08:09:13.317Z,95959.75
2023-04-12T08:11:39.644Z,95953.94
2023-04-12T08:14:05.895Z,95950.56
2023-04-12T08:16:32.162Z,95962.34
2023-04-12T08:18:58.428Z,95958.78
2023-04-12T08:21:24.683Z,95951.97
2023-04-12T08:23:50.946Z,95954.66
2023-04-12T08:26:17.203Z,95960.84
2023-04-12T08:28:43.462Z,95956.19
2023-04-12T08:31:09.732Z,95960.41
2023-04-12T08:33:36.041Z,95963.69
2023-04-12T08:36:02.366Z,95962.59
2023-04-12T08:38:44.187Z,95962.72
2023-04-12T08:41:12.387Z,95961.00
2023-04-12T08:43:38.890Z,95959.06
2023-04-12T08:46:05.250Z,95953.91
2023-04-12T08:48:31.582Z,95948.03
2023-04-12T08:50:57.905Z,95946.44
2023-04-12T08:53:24.175Z,95946.47
2023-04-12T08:55:50.465Z,95941.75
2023-04-12T08:58:16.750Z,95939.47
2023-04-12T09:00:43.032Z,95949.31
2023-04-12T09:03:09.567Z,95938.91
2023-04-12T09:05:36.130Z,95942.34
2023-04-12T09:08:02.377Z,95937.94
2023-04-12T09:10:28.643Z,95931.97
2023-04-12T09:12:54.925Z,95936.22
2023-04-12T09:15:21.195Z,95927.69
2023-04-12T09:17:47.541Z,95920.44
2023-04-12T09:20:13.860Z,95919.19
2023-04-12T09:22:40.249Z,95921.09
2023-04-12T09:25:06.577Z,95914.88
2023-04-12T09:27:32.856Z,95916.91
2023-04-12T09:30:00.115Z,95912.63
2023-04-12T09:32:26.538Z,95924.59
2023-04-12T09:34:52.830Z,95908.13
2023-04-12T09:37:19.086Z,95912.34
2023-04-12T09:39:45.439Z,95916.03
2023-04-12T09:42:29.260Z,95915.75
2023-04-12T09:44:57.971Z,95903.06
2023-04-12T09:47:24.297Z,95903.28
2023-04-12T09:49:50.597Z,95892.16
2023-04-12T09:52:16.865Z,95895.00
2023-04-12T09:54:43.154Z,95904.59
2023-04-12T09:57:09.414Z,95896.69
2023-04-12T09:59:35.676Z,95907.41
2023-04-12T10:02:02.038Z,95898.00
2023-04-12T10:04:28.673Z,95899.59
2023-04-12T10:06:54.993Z,95910.91
2023-04-12T10:09:21.280Z,95887.19
2023-04-12T10:11:47.539Z,95885.97
2023-04-12T10:14:16.324Z,95889.09
2023-04-12T10:16:43.841Z,95889.66
2023-04-12T10:19:10.095Z,95874.19
2023-04-12T10:21:36.359Z,95873.03
2023-04-12T10:24:02.652Z,95876.44
2023-04-12T10:26:28.971Z,95865.25
2023-04-12T10:28:55.369Z,95874.75
2023-04-12T10:31:21.719Z,95870.34
2023-04-12T10:33:47.964Z,95875.66
2023-04-12T10:36:14.265Z,95874.97
2023-04-12T10:38:40.618Z,95868.34
2023-04-12T10:41:06.906Z,95859.22
2023-04-12T10:43:33.207Z,95863.06
2023-04-12T10:45:59.465Z,95866.13
2023-04-12T10:48:25.814Z,95864.91
2023-04-12T10:50:52.125Z,95857.13
2023-04-12T10:53:18.404Z,95851.38
2023-04-12T10:55:44.781Z,95874.75
2023-04-12T10:58:11.115Z,95856.31
2023-04-12T11:00:37.442Z,95859.78
2023-04-12T11:03:04.003Z,95854.38
2023-04-12T11:05:30.562Z,95845.44
2023-04-12T11:07:56.884Z,95855.25
2023-04-12T11:10:23.174Z,95866.56
2023-04-12T11:12:49.425Z,95860.38
2023-04-12T11:15:15.673Z,95865.88
2023-04-12T11:17:42.048Z,95871.19
2023-04-12T11:20:08.366Z,95886.84
2023-04-12T11:22:34.664Z,95856.06
2023-04-12T11:25:00.992Z,95863.38
2023-04-12T11:27:27.356Z,95851.75
2023-04-12T11:29:53.629Z,95841.47
2023-04-12T11:32:19.935Z,95855.41
2023-04-12T11:34:46.245Z,95842.25
2023-04-12T11:37:12.526Z,95847.94
2023-04-12T11:39:38.793Z,95835.38
2023-04-12T11:42:05.054Z,95840.59
2023-04-12T11:44:40.748Z,95826.56
2023-04-12T11:47:17.590Z,95833.63
2023-04-12T11:49:43.953Z,95834.63
2023-04-12T11:52:10.244Z,95828.25
2023-04-12T11:54:36.509Z,95831.50
2023-04-12T11:57:05.495Z,95823.47
2023-04-12T11:59:31.994Z,95815.97
2023-04-12T12:01:58.287Z,95817.84
2023-04-12T12:04:24.724Z,95829.50
2023-04-12T12:06:51.556Z,95820.25
2023-04-12T12:09:17.886Z,95832.38
2023-04-12T12:11:44.179Z,95828.44
2023-04-12T12:14:10.439Z,95841.38
2023-04-12T12:16:36.701Z,95837.25
2023-04-12T12:19:02.963Z,95841.75
2023-04-12T12:21:29.233Z,95845.13
2023-04-12T12:23:55.720Z,95853.06
2023-04-12T12:26:22.452Z,95858.47
2023-04-12T12:28:48.762Z,95857.38
2023-04-12T12:31:15.049Z,95871.50
2023-04-12T12:33:46.539Z,95882.56
2023-04-12T12:36:13.702Z,95876.25
2023-04-12T12:38:39.974Z,95887.44
2023-04-12T12:41:06.238Z,95879.72
2023-04-12T12:43:32.491Z,95860.47
2023-04-12T12:45:58.791Z,95867.44
2023-04-12T12:48:25.073Z,95845.28
2023-04-12T12:50:51.382Z,95866.94
2023-04-12T12:53:17.663Z,95884.91
2023-04-12T12:55:43.937Z,95873.09
2023-04-12T12:58:10.245Z,95858.19
2023-04-12T13:00:36.652Z,95848.19
2023-04-12T13:03:03.585Z,95870.94
2023-04-12T13:05:30.159Z,95854.88
2023-04-12T13:07:56.436Z,95851.13
2023-04-12T13:10:22.701Z,95857.91
2023-04-12T13:12:48.961Z,95857.84
2023-04-12T13:17:44.491Z,95845.94
2023-04-12T13:20:10.840Z,95843.53
2023-04-12T13:22:37.114Z,95837.53
2023-04-12T13:25:03.435Z,95830.41
2023-04-12T13:27:29.690Z,95827.66
2023-04-12T13:29:55.945Z,95822.88
2023-04-12T13:32:22.212Z,95815.75
2023-04-12T13:34:48.544Z,95809.28
2023-04-12T13:37:14.844Z,95809.81
2023-04-12T13:39:41.134Z,95811.97
2023-04-12T13:42:07.381Z,95810.97
2023-04-12T13:44:33.654Z,95807.13
2023-04-12T13:46:59.947Z,95809.50
2023-04-12T13:49:26.188Z,95807.25
2023-04-12T13:51:52.446Z,95814.75
2023-04-12T13:54:18.778Z,95817.94
2023-04-12T13:56:45.122Z,95813.94
2023-04-12T13:59:11.373Z,95811.25
2023-04-12T14:01:37.705Z,95816.63
2023-04-12T14:04:04.127Z,95807.63
2023-04-12T14:06:30.439Z,95813.00
2023-04-12T14:08:56.876Z,95807.41
2023-04-12T14:11:23.409Z,95805.81
2023-04-12T14:13:49.710Z,95808.22
2023-04-12T14:16:15.968Z,95803.84
2023-04-12T14:18:42.233Z,95799.19
2023-04-12T14:21:08.501Z,95799.84
2023-04-12T14:23:34.754Z,95798.13
2023-04-12T14:26:00.998Z,95795.34
2023-04-12T14:28:27.359Z,95790.78
2023-04-12T14:30:53.663Z,95779.75
2023-04-12T14:33:19.962Z,95773.72
2023-04-12T14:35:46.239Z,95771.09
2023-04-12T14:38:12.488Z,95775.44
2023-04-12T14:40:38.752Z,95780.97
2023-04-12T14:43:04.998Z,95780.91
2023-04-12T14:45:31.275Z,95769.88
2023-04-12T14:47:57.610Z,95777.84
2023-04-12T14:50:23.927Z,95779.38
2023-04-12T14:52:50.248Z,95791.47
2023-04-12T14:55:16.492Z,95786.13
2023-04-12T14:57:42.757Z,95787.84
2023-04-12T15:00:09.009Z,95796.59
2023-04-12T15:02:35.449Z,95789.97
2023-04-12T15:05:02.019Z,95800.19
2023-04-12T15:07:28.606Z,95807.31
2023-04-12T15:09:54.867Z,95805.34
2023-04-12T15:12:21.134Z,95806.13
2023-04-12T15:14:47.382Z,95811.72
2023-04-12T15:17:13.640Z,95813.78
2023-04-12T15:19:39.920Z,95815.97
2023-04-12T15:22:06.175Z,95818.56
2023-04-12T15:24:32.443Z,95803.13
2023-04-12T15:26:58.721Z,95817.44
2023-04-12T15:29:24.982Z,95825.19
2023-04-12T15:31:51.237Z,95830.31
2023-04-12T15:34:17.523Z,95825.56
2023-04-12T15:36:43.919Z,95822.34
2023-04-12T15:39:10.208Z,95819.13
2023-04-12T15:41:36.473Z,95811.97
2023-04-12T15:44:02.758Z,95817.06
2023-04-12T15:46:29.076Z,95828.06
2023-04-12T15:48:55.442Z,95817.72
2023-04-12T15:51:21.695Z,95820.16
2023-04-12T15:53:47.976Z,95816.34
2023-04-12T15:56:14.234Z,95817.47
2023-04-12T15:58:40.497Z,95816.38
2023-04-12T16:01:06.784Z,95825.25
2023-04-12T16:03:33.243Z,95829.22
2023-04-12T16:05:59.556Z,95833.50
2023-04-12T16:08:25.833Z,95836.72
2023-04-12T16:10:52.096Z,95818.53
2023-04-12T16:13:18.608Z,95830.28
2023-04-12T16:15:45.161Z,95824.34
2023-04-12T16:18:11.490Z,95823.47
2023-04-12T16:20:37.800Z,95817.88
2023-04-12T16:23:04.081Z,95807.63
2023-04-12T16:25:30.335Z,95821.19
2023-04-12T16:27:56.596Z,95822.31
2023-04-12T16:30:23.048Z,95817.94
2023-04-12T16:32:49.540Z,95813.88
2023-04-12T16:35:15.849Z,95811.41
2023-04-12T16:37:42.088Z,95806.56
2023-04-12T16:40:08.372Z,95814.56
2023-04-12T16:42:34.617Z,95815.88
2023-04-12T16:45:00.889Z,95818.78
2023-04-12T16:47:27.160Z,95815.56
2023-04-12T16:49:53.474Z,95820.91
2023-04-12T16:52:19.730Z,95824.97
2023-04-12T16:54:46.004Z,95836.81
2023-04-12T16:57:12.262Z,95847.91
2023-04-12T16:59:38.567Z,95846.50
2023-04-12T17:02:04.878Z,95842.78
2023-04-12T17:04:31.181Z,95854.59
2023-04-12T17:06:57.461Z,95843.03
2023-04-12T17:09:23.701Z,95811.94
2023-04-12T17:11:49.984Z,95836.81
2023-04-12T17:14:16.249Z,95839.19
2023-04-12T17:16:42.606Z,95832.19
2023-04-12T17:19:10.533Z,95815.31
2023-04-12T17:21:36.981Z,95834.91
2023-04-12T17:24:03.278Z,95817.78
2023-04-12T17:26:29.615Z,95806.22
2023-04-12T17:28:55.958Z,95804.28
2023-04-12T17:31:22.235Z,95807.69
2023-04-12T17:33:48.532Z,95798.47
2023-04-12T17:36:14.787Z,95792.56
2023-04-12T17:38:41.037Z,95798.94
2023-04-12T17:41:07.284Z,95802.91
2023-04-12T17:43:33.539Z,95825.66
2023-04-12T17:45:59.798Z,95820.88
2023-04-12T17:48:26.076Z,95830.22
2023-04-12T17:50:52.322Z,95829.94
2023-04-12T17:53:18.570Z,95849.75
2023-04-12T17:55:44.861Z,95851.66
2023-04-12T17:58:11.150Z,95851.97
2023-04-12T18:00:37.416Z,95851.13
2023-04-12T18:03:03.859Z,95858.63
2023-04-12T18:05:30.236Z,95848.16
2023-04-12T18:07:56.498Z,95853.50
2023-04-12T18:10:22.762Z,95857.03
2023-04-12T18:12:49.053Z,95849.50
2023-04-12T18:15:15.309Z,95858.69
2023-04-12T18:17:41.587Z,95868.88
2023-04-12T18:20:07.865Z,95868.97
2023-04-12T18:22:34.168Z,95857.16
2023-04-12T18:25:00.508Z,95874.66
2023-04-12T18:27:26.767Z,95874.91
2023-04-12T18:29:53.026Z,95889.91
2023-04-12T18:32:19.473Z,95901.78
2023-04-12T18:34:45.780Z,95911.72
2023-04-12T18:37:12.035Z,95908.50
2023-04-12T18:39:38.280Z,95900.81
2023-04-12T18:42:04.606Z,95908.00
2023-04-12T18:44:30.926Z,95910.09
2023-04-12T18:46:57.313Z,95913.84
2023-04-12T18:49:23.630Z,95922.16
2023-04-12T18:51:49.919Z,95926.97
2023-04-12T18:54:16.206Z,95935.00
2023-04-12T18:56:42.467Z,95934.47
2023-04-12T18:59:08.733Z,95926.72
2023-04-12T19:01:35.004Z,95923.78
2023-04-12T19:04:01.799Z,95933.69
2023-04-12T19:06:28.563Z,95942.00
2023-04-12T19:08:54.830Z,95939.03
2023-04-12T19:11:21.085Z,95940.63
2023-04-12T19:13:47.393Z,95943.03
2023-04-12T19:16:13.708Z,95951.31
2023-04-12T19:18:40.065Z,95962.63
2023-04-12T19:21:06.343Z,95955.13
2023-04-12T19:23:32.605Z,95950.81
2023-04-12T19:25:58.841Z,95964.19
2023-04-12T19:28:25.192Z,95979.75
2023-04-12T19:30:51.437Z,96008.22
2023-04-12T19:33:17.689Z,96022.75
2023-04-12T19:35:43.928Z,96032.97
2023-04-12T19:38:10.169Z,96061.63
2023-04-12T19:40:36.439Z,96070.47
2023-04-12T19:43:02.695Z,96066.97
2023-04-12T19:45:29.035Z,96058.94
2023-04-12T19:47:55.351Z,96040.22
2023-04-12T19:50:21.651Z,96050.66
2023-04-12T19:52:47.903Z,96044.25
2023-04-12T19:55:14.148Z,96036.50
2023-04-12T19:57:40.427Z,96052.81
2023-04-12T20:00:06.703Z,96054.13
2023-04-12T20:02:33.109Z,96059.50
2023-04-12T20:04:59.577Z,96074.75
2023-04-12T20:07:25.849Z,96076.88
2023-04-12T20:09:52.122Z,96087.03
2023-04-12T20:12:18.384Z,96100.44
2023-04-12T20:14:44.648Z,96114.88
2023-04-12T20:17:11.049Z,96107.66
2023-04-12T20:19:37.379Z,96117.00
2023-04-12T20:22:03.633Z,96119.16
2023-04-12T20:24:29.984Z,96120.50
2023-04-12T20:26:56.236Z,96125.28
2023-04-12T20:29:22.514Z,96130.91
2023-04-12T20:31:48.789Z,96129.56
2023-04-12T20:34:15.077Z,96126.63
2023-04-12T20:36:41.385Z,96113.25
2023-04-12T20:39:07.644Z,96130.38
2023-04-12T20:41:33.897Z,96123.97
2023-04-12T20:44:00.152Z,96128.78
2023-04-12T20:46:26.462Z,96139.19
2023-04-12T20:48:52.753Z,96161.41
2023-04-12T20:51:19.035Z,96158.97
2023-04-12T20:53:45.293Z,96160.84
2023-04-12T20:56:11.567Z,96161.59
2023-04-12T20:58:37.825Z,96150.09
2023-04-12T21:01:04.083Z,96147.66
2023-04-12T21:03:31.566Z,96134.03
2023-04-12T21:05:57.929Z,96128.16
2023-04-12T21:08:24.205Z,96131.94
2023-04-12T21:10:50.468Z,96130.03
2023-04-12T21:13:16.710Z,96131.94
2023-04-12T21:15:43.044Z,96128.19
2023-04-12T21:18:09.415Z,96128.47
2023-04-12T21:20:35.698Z,96137.56
2023-04-12T21:23:01.978Z,96134.63
2023-04-12T21:25:28.280Z,96138.38
2023-04-12T21:27:54.579Z,96143.44
2023-04-12T21:30:20.843Z,96148.78
2023-04-12T21:32:47.165Z,96148.25
2023-04-12T21:35:13.481Z,96159.47
2023-04-12T21:37:39.784Z,96154.91
2023-04-12T21:40:06.048Z,96159.75
2023-04-12T21:42:32.375Z,96156.00
2023-04-12T21:44:58.637Z,96145.28
2023-04-12T21:47:24.901Z,96142.06
2023-04-12T21:49:51.285Z,96159.91
2023-04-12T21:52:17.547Z,96151.91
2023-04-12T21:54:43.801Z,96156.97
2023-04-12T21:57:10.060Z,96140.97
2023-04-12T21:59:36.314Z,96144.69
2023-04-12T22:02:02.619Z,96149.47
2023-04-12T22:04:28.970Z,96145.97
2023-04-12T22:06:55.221Z,96163.69
2023-04-12T22:09:21.474Z,96162.34
2023-04-12T22:11:47.754Z,96149.00
2023-04-12T22:14:14.007Z,96165.34
2023-04-12T22:16:40.344Z,96168.47
2023-04-12T22:19:06.617Z,96167.44
2023-04-12T22:21:32.877Z,96170.06
2023-04-12T22:23:59.284Z,96170.88
2023-04-12T22:26:25.634Z,96168.97
2023-04-12T22:28:51.861Z,96170.03
2023-04-12T22:31:18.178Z,96164.06
2023-04-12T22:33:44.496Z,96185.38
2023-04-12T22:36:10.744Z,96177.31
2023-04-12T22:38:37.003Z,96192.78
2023-04-12T22:41:03.254Z,96188.59
2023-04-12T22:43:29.532Z,96193.84
2023-04-12T22:45:55.851Z,96195.34
2023-04-12T22:48:22.121Z,96199.22
2023-04-12T22:50:48.376Z,96191.50
2023-04-12T22:53:14.626Z,96186.94
2023-04-12T22:55:40.895Z,96180.28
2023-04-12T22:58:07.211Z,96170.72
2023-04-12T23:00:33.517Z,96182.13
2023-04-12T23:02:59.964Z,96176.81
2023-04-12T23:05:26.372Z,96176.09
2023-04-12T23:07:52.626Z,96172.09
2023-04-12T23:10:18.887Z,96165.13
2023-04-12T23:12:45.195Z,96162.75
2023-04-12T23:15:11.453Z,96162.19
2023-04-12T23:17:37.787Z,96160.81
2023-04-12T23:20:04.055Z,96156.81
2023-04-12T23:22:40.706Z,96143.25
2023-04-12T23:25:16.591Z,96147.28
2023-04-12T23:27:42.855Z,96153.63
2023-04-12T23:30:09.121Z,96151.47
2023-04-12T23:32:35.426Z,96158.72
2023-04-12T23:35:01.670Z,96158.94
2023-04-12T23:37:27.918Z,96169.31
2023-04-12T23:39:54.166Z,96162.03
2023-04-12T23:42:20.419Z,96158.81
2023-04-12T23:44:46.702Z,96152.44
2023-04-12T23:47:12.979Z,96159.34
2023-04-12T23:49:39.237Z,96146.50
2023-04-12T23:52:05.492Z,96139.81
2023-04-12T23:54:31.790Z,96147.56
2023-04-12T23:56:58.041Z,96143.38
2023-04-12T23:59:25.324Z,96143.97
